Time;durP1;ratioP1;P1;durP2;ratioP2;P2;SDS_P1;SDS_P2;PMS_P1;PMS_P2;Temp;Humidity;BMP_temperature;BMP_pressure;BME280_temperature;BME280_humidity;BME280_pressure;Samples;Min_cycle;Max_cycle;Signal;HPM_P1;HPM_P2
2023/12/15 07:02:02;;;;;;;0.33;0.33;;;9.10;99.90;11.70;102836.00;;;;6123426;22;1500885;-67
2023/12/15 07:04:55;;;;;;;0.97;0.77;;;9.40;99.90;13.20;102820.00;;;;6213239;23;20241;-67
2023/12/15 07:08:01;;;;;;;2.87;1.47;;;9.90;99.90;11.80;102853.00;;;;6214830;23;20154;-67
2023/12/15 07:11:02;;;;;;;0.33;0.33;;;9.70;99.90;12.00;102831.00;;;;6216863;23;20145;-66
2023/12/15 07:14:13;;;;;;;0.97;0.97;;;9.70;99.90;12.00;102830.00;;;;6189403;23;20167;-67
2023/12/15 07:17:19;;;;;;;1.50;1.40;;;9.80;99.90;13.00;102873.00;;;;6217521;23;20156;-67
2023/12/15 07:20:17;;;;;;;1.40;0.87;;;10.10;99.90;12.10;102881.00;;;;6189799;23;20197;-67
2023/12/15 07:23:27;;;;;;;4.80;4.40;;;10.00;99.90;11.40;102891.00;;;;6215938;23;20174;-67
2023/12/15 07:26:28;;;;;;;3.40;2.10;;;9.60;99.90;11.20;102896.00;;;;6215273;23;20190;-67
2023/12/15 07:29:22;;;;;;;2.00;1.63;;;9.40;99.90;11.30;102898.00;;;;6217305;23;20140;-67
2023/12/15 07:32:10;;;;;;;0.67;0.67;;;9.30;99.90;11.70;102901.00;;;;6197226;23;20642;-67
2023/12/15 07:35:16;;;;;;;0.60;0.60;;;9.50;99.90;11.30;102896.00;;;;6216832;23;20142;-67
2023/12/15 07:38:35;;;;;;;4.20;2.30;;;9.40;99.90;11.10;102891.00;;;;6171015;23;20854;-66
2023/12/15 07:41:57;;;;;;;0.83;0.83;;;9.30;99.90;11.50;102897.00;;;;6215470;23;20205;-66
2023/12/15 07:45:01;;;;;;;3.07;2.73;;;9.30;99.90;11.00;102891.00;;;;6216289;23;20241;-67
2023/12/15 07:48:02;;;;;;;1.70;1.63;;;9.30;99.90;11.70;102889.00;;;;6215818;23;20150;-66
2023/12/15 07:51:15;;;;;;;1.00;1.00;;;9.30;99.90;12.20;102900.00;;;;6215660;23;20155;-66
2023/12/15 07:54:16;;;;;;;0.60;0.60;;;9.60;99.90;11.60;102902.00;;;;6216072;23;20233;-66
2023/12/15 07:57:25;;;;;;;0.70;0.70;;;9.40;99.90;12.40;102918.00;;;;6215243;23;20209;-66
2023/12/15 08:00:31;;;;;;;0.20;0.20;;;9.60;99.90;12.00;102927.00;;;;6189034;23;20179;-67
2023/12/15 08:03:07;;;;;;;0.20;0.20;;;9.80;99.90;12.10;102925.00;;;;6216380;23;20607;-67
2023/12/15 08:06:15;;;;;;;0.30;0.30;;;9.70;99.90;12.10;102940.00;;;;6190083;23;20204;-66
2023/12/15 08:09:01;;;;;;;0.20;0.20;;;9.60;99.90;13.10;102956.00;;;;6186966;23;20155;-66
2023/12/15 08:11:27;;;;;;;0.60;0.60;;;10.00;99.90;12.50;102954.00;;;;6190435;23;20189;-66
2023/12/15 08:14:16;;;;;;;2.43;1.80;;;9.90;99.90;12.80;102964.00;;;;6215236;23;20518;-66
2023/12/15 08:16:52;;;;;;;0.47;0.47;;;10.00;99.90;12.90;102969.00;;;;6216786;23;20190;-66
2023/12/15 08:19:18;;;;;;;2.80;1.80;;;10.00;99.90;12.00;102973.00;;;;6215960;23;20149;-66
2023/12/15 08:22:08;;;;;;;7.03;2.10;;;9.80;99.90;12.70;102986.00;;;;6215747;23;20145;-66
2023/12/15 08:24:48;;;;;;;8.20;2.03;;;9.90;99.90;12.30;102987.00;;;;6214145;23;20159;-67
2023/12/15 08:27:37;;;;;;;0.20;0.20;;;9.80;99.90;12.40;102993.00;;;;6213427;23;20158;-67
2023/12/15 08:30:23;;;;;;;0.23;0.23;;;9.90;99.90;13.40;103004.00;;;;6215195;23;20159;-67
2023/12/15 08:33:08;;;;;;;0.30;0.30;;;10.10;99.90;12.70;102985.00;;;;6215042;23;20151;-67
2023/12/15 08:35:49;;;;;;;0.20;0.20;;;10.10;99.90;13.00;103001.00;;;;6190066;23;20620;-67
2023/12/15 08:38:37;;;;;;;1.33;1.23;;;10.10;99.90;13.00;102992.00;;;;6214984;23;20233;-67
2023/12/15 08:41:06;;;;;;;2.40;2.30;;;10.10;99.90;12.80;103009.00;;;;6188865;23;20159;-67
2023/12/15 08:43:33;;;;;;;2.83;2.50;;;10.00;99.90;12.00;103018.00;;;;6215147;23;20197;-67
2023/12/15 08:46:00;;;;;;;2.90;1.50;;;9.80;99.90;11.70;103017.00;;;;6215377;23;20145;-67
2023/12/15 08:48:31;;;;;;;0.20;0.20;;;9.70;99.90;11.70;103021.00;;;;6215367;23;20460;-67
2023/12/15 08:50:57;;;;;;;0.20;0.20;;;9.50;99.90;12.70;103034.00;;;;6190173;23;20475;-68
2023/12/15 08:53:29;;;;;;;2.17;1.97;;;9.70;99.90;12.30;103017.00;;;;6216244;23;20223;-68
2023/12/15 08:56:02;;;;;;;5.13;2.00;;;9.80;99.90;12.60;103050.00;;;;6216370;23;20169;-68
2023/12/15 08:58:28;;;;;;;0.37;0.37;;;9.80;99.90;12.60;103042.00;;;;6216526;23;20148;-68
2023/12/15 09:00:57;;;;;;;0.20;0.20;;;9.90;99.90;11.90;103069.00;;;;6214174;23;20181;-67
2023/12/15 09:07:19;;;;;;;0.20;0.20;;;9.60;99.90;11.90;103072.00;;;;6109606;23;20161;-67
2023/12/15 09:10:07;;;;;;;0.37;0.37;;;9.60;99.90;12.30;103085.00;;;;6190406;23;20173;-67
2023/12/15 09:12:47;;;;;;;0.77;0.73;;;9.70;99.90;11.80;103087.00;;;;6190363;23;20194;-67
2023/12/15 09:15:36;;;;;;;0.30;0.30;;;9.60;99.90;12.20;103086.00;;;;6215214;23;20180;-67
2023/12/15 09:18:30;;;;;;;0.20;0.20;;;9.60;99.90;12.30;103099.00;;;;6197258;23;20175;-68
2023/12/15 09:21:35;;;;;;;1.00;0.93;;;9.60;99.90;13.00;103096.00;;;;6216018;23;20210;-68
2023/12/15 09:24:31;;;;;;;0.50;0.50;;;9.90;99.90;12.50;103057.00;;;;6213138;23;20161;-68
2023/12/15 09:26:57;;;;;;;1.90;1.80;;;10.10;99.90;13.40;103112.00;;;;6201054;23;20838;-68
2023/12/15 09:29:41;;;;;;;5.93;0.70;;;10.30;99.90;12.50;103105.00;;;;6215789;23;20286;-68
2023/12/15 09:32:09;;;;;;;0.27;0.27;;;10.10;99.90;12.60;103119.00;;;;6213963;23;20147;-68
2023/12/15 09:35:04;;;;;;;0.73;0.73;;;10.20;99.90;13.00;103131.00;;;;6215935;23;20175;-68
2023/12/15 09:37:50;;;;;;;2.17;2.07;;;10.40;99.90;12.90;103128.00;;;;6199033;23;20167;-68
2023/12/15 09:40:27;;;;;;;0.30;0.30;;;10.30;99.90;12.60;103101.00;;;;6214218;23;20250;-71
2023/12/15 09:43:14;;;;;;;0.20;0.20;;;10.10;99.90;13.10;103154.00;;;;6189550;23;20202;-67
2023/12/15 09:45:59;;;;;;;3.17;1.77;;;10.20;99.90;13.50;103176.00;;;;6214300;23;20183;-68
2023/12/15 09:48:46;;;;;;;0.20;0.20;;;10.40;99.90;13.30;103157.00;;;;6214547;23;20567;-68
2023/12/15 09:51:39;;;;;;;1.33;1.23;;;10.60;99.90;13.30;103177.00;;;;6189865;23;20236;-68
2023/12/15 09:54:42;;;;;;;1.13;1.13;;;10.40;99.90;13.50;103187.00;;;;6215527;23;20149;-68
2023/12/15 09:57:38;;;;;;;0.20;0.20;;;10.60;99.90;13.40;103197.00;;;;6207381;23;20166;-68
2023/12/15 10:00:37;;;;;;;0.67;0.60;;;10.70;99.90;13.90;103187.00;;;;6215657;23;20164;-67
2023/12/15 10:03:44;;;;;;;1.60;1.40;;;10.80;99.90;13.80;103221.00;;;;6176296;23;20258;-68
2023/12/15 10:06:10;;;;;;;0.20;0.20;;;10.80;99.90;14.00;103222.00;;;;6170622;23;20690;-68
2023/12/15 10:09:22;;;;;;;0.60;0.60;;;10.80;99.90;14.00;103241.00;;;;6188432;23;20249;-68
2023/12/15 10:11:54;;;;;;;0.77;0.77;;;11.00;99.90;14.40;103239.00;;;;6190340;23;20243;-68
2023/12/15 10:14:30;;;;;;;0.43;0.43;;;11.00;99.90;14.90;103264.00;;;;6188800;23;20143;-67
2023/12/15 10:17:23;;;;;;;0.47;0.47;;;11.30;99.90;14.20;103281.00;;;;6188308;23;20576;-68
2023/12/15 10:20:07;;;;;;;1.43;1.33;;;11.30;99.90;13.80;103283.00;;;;6171041;23;20159;-68
2023/12/15 10:33:41;;;;;;;0.20;0.20;;;9.70;99.90;13.20;103246.00;;;;5109580;27;20574;-69
2023/12/15 10:36:13;;;;;;;0.10;0.10;;;10.10;99.90;14.40;103300.00;;;;5105438;28;20243;-69
2023/12/15 10:39:20;;;;;;;0.10;0.10;;;10.70;99.90;15.00;103296.00;;;;5105887;28;20184;-69
2023/12/15 10:42:42;;;;;;;0.23;0.23;;;11.20;99.90;15.00;103348.00;;;;5066486;28;20666;-67
2023/12/15 10:45:48;;;;;;;0.50;0.50;;;11.70;99.90;14.40;103354.00;;;;5084536;28;20181;-67
2023/12/15 10:49:03;;;;;;;0.10;0.10;;;11.50;99.90;13.90;103331.00;;;;5100466;28;20204;-69
2023/12/15 10:51:55;;;;;;;0.93;0.93;;;11.20;99.90;13.60;103331.00;;;;5087949;28;20213;-69
2023/12/15 10:54:44;;;;;;;0.93;0.93;;;10.90;99.90;13.90;103346.00;;;;5105259;28;20555;-69
2023/12/15 10:57:45;;;;;;;0.57;0.57;;;10.80;99.90;14.20;103356.00;;;;5088429;28;20653;-69
2023/12/15 11:00:46;;;;;;;0.13;0.13;;;11.00;99.90;14.20;103336.00;;;;5080970;28;20249;-69
2023/12/15 11:03:32;;;;;;;0.10;0.10;;;11.20;99.90;13.40;103348.00;;;;5082662;28;20199;-69
2023/12/15 11:06:47;;;;;;;0.53;0.53;;;10.80;99.90;13.80;103354.00;;;;5088163;28;20655;-69
2023/12/15 11:09:44;;;;;;;11.53;10.80;;;10.90;99.90;14.20;103356.00;;;;5076398;28;20221;-69
2023/12/15 11:12:32;;;;;;;0.43;0.43;;;10.90;99.90;14.30;103367.00;;;;5077321;28;20213;-69
2023/12/15 11:15:35;;;;;;;0.30;0.30;;;11.10;99.90;14.60;103378.00;;;;5096206;28;20243;-69
2023/12/15 11:18:02;;;;;;;0.20;0.20;;;11.40;99.90;14.80;103371.00;;;;5024778;28;20196;-69
2023/12/15 11:20:47;;;;;;;1.40;1.30;;;11.40;99.90;14.90;103399.00;;;;5105099;28;20199;-69
2023/12/15 11:26:43;;;;;;;1.60;1.50;;;11.90;99.90;14.80;103432.00;;;;5088250;28;20191;-69
2023/12/15 11:29:18;;;;;;;0.17;0.17;;;11.70;99.90;14.90;103411.00;;;;5100024;28;20187;-67
2023/12/15 11:31:54;;;;;;;0.10;0.10;;;11.50;99.90;14.60;103389.00;;;;5084190;28;20239;-67
2023/12/15 11:34:40;;;;;;;0.10;0.10;;;11.40;99.90;14.90;103381.00;;;;5095229;28;20193;-67
2023/12/15 11:37:28;;;;;;;0.10;0.10;;;11.40;99.90;14.60;103370.00;;;;5094999;28;20191;-67
2023/12/15 11:40:10;;;;;;;0.13;0.13;;;11.50;99.90;14.80;103351.00;;;;5087327;28;20212;-67
2023/12/15 11:42:40;;;;;;;0.20;0.20;;;11.40;99.90;15.40;103332.00;;;;5086637;28;20184;-67
2023/12/15 11:45:31;;;;;;;0.10;0.10;;;11.60;99.90;15.90;103351.00;;;;5073271;28;20192;-67
2023/12/15 11:48:29;;;;;;;0.10;0.10;;;11.80;99.90;16.10;103383.00;;;;5086557;28;20194;-67
2023/12/15 11:51:08;;;;;;;0.10;0.10;;;12.20;99.90;14.20;103387.00;;;;5060903;28;20205;-67
2023/12/15 11:56:54;;;;;;;0.10;0.10;;;11.40;99.90;14.70;103309.00;;;;5087122;28;20277;-68
2023/12/15 11:59:48;;;;;;;0.10;0.10;;;11.40;99.90;14.00;103349.00;;;;5074686;28;20258;-68
2023/12/15 12:02:25;;;;;;;5.93;2.10;;;11.20;99.90;13.70;103362.00;;;;5073903;28;20196;-68
2023/12/15 12:05:12;;;;;;;0.50;0.50;;;11.00;99.90;13.40;103335.00;;;;5073937;28;20181;-68
2023/12/15 12:07:54;;;;;;;0.10;0.10;;;10.80;99.90;13.70;103330.00;;;;5077293;28;20262;-68
2023/12/15 12:11:04;;;;;;;0.10;0.10;;;10.80;99.90;15.00;103353.00;;;;5074569;28;20192;-68
2023/12/15 12:13:48;;;;;;;0.10;0.10;;;11.20;99.90;14.60;103366.00;;;;5070739;28;20667;-68
2023/12/15 12:16:28;;;;;;;0.20;0.20;;;11.40;99.90;15.70;103383.00;;;;5087077;28;20207;-68
2023/12/15 12:19:38;;;;;;;0.10;0.10;;;11.70;99.90;14.70;103424.00;;;;5075741;28;20863;-68
2023/12/15 12:22:11;;;;;;;0.50;0.50;;;11.80;99.90;14.70;103383.00;;;;5060912;28;20283;-68
2023/12/15 12:24:52;;;;;;;0.20;0.20;;;11.50;99.90;14.90;103414.00;;;;5073822;28;20182;-68
2023/12/15 12:27:41;;;;;;;0.10;0.10;;;11.60;99.90;14.20;103421.00;;;;5073335;28;20197;-68
2023/12/15 12:30:24;;;;;;;0.50;0.50;;;11.40;99.90;14.20;103415.00;;;;5073541;28;20187;-68
2023/12/15 12:32:54;;;;;;;0.10;0.10;;;11.30;99.90;13.40;103398.00;;;;5073723;28;20736;-68
2023/12/15 12:35:20;;;;;;;0.77;0.77;;;11.00;99.90;13.30;103361.00;;;;5072445;28;20606;-68
2023/12/15 12:38:00;;;;;;;0.10;0.10;;;10.80;99.90;13.90;103374.00;;;;5074642;28;20248;-68
2023/12/15 12:40:33;;;;;;;0.70;0.70;;;11.00;99.90;14.50;103393.00;;;;5074422;28;20237;-68
2023/12/15 12:43:43;;;;;;;0.97;0.97;;;11.30;99.90;13.60;103400.00;;;;5090475;28;20198;-68
2023/12/15 12:46:30;;;;;;;1.93;1.03;;;11.00;99.90;13.50;103380.00;;;;5073226;28;21074;-68
2023/12/15 12:49:00;;;;;;;1.80;0.60;;;10.90;99.90;13.80;103386.00;;;;5079307;28;20185;-68
2023/12/15 12:51:44;;;;;;;0.40;0.40;;;11.10;99.90;14.60;103376.00;;;;5084271;28;20206;-68
2023/12/15 12:54:40;;;;;;;0.30;0.30;;;11.40;99.90;14.10;103397.00;;;;5080663;28;20198;-68
2023/12/15 12:57:14;;;;;;;7.20;0.97;;;11.30;99.90;13.90;103415.00;;;;5068110;28;20225;-68
2023/12/15 12:59:58;;;;;;;0.20;0.20;;;11.30;99.90;13.30;103396.00;;;;5073242;28;20533;-68
2023/12/15 13:02:50;;;;;;;0.30;0.30;;;11.10;99.90;13.10;103362.00;;;;5087340;28;20191;-68
2023/12/15 13:05:17;;;;;;;1.50;1.27;;;10.90;99.90;12.30;103329.00;;;;5069645;28;20193;-68
2023/12/15 13:07:43;;;;;;;1.83;0.57;;;10.60;99.90;12.40;103348.00;;;;5074154;28;20319;-68
2023/12/15 13:10:15;;;;;;;0.40;0.40;;;10.50;99.90;12.50;103353.00;;;;5078899;28;20187;-68
2023/12/15 13:12:44;;;;;;;1.87;1.77;;;10.40;99.90;13.30;103337.00;;;;5073769;28;20288;-68
2023/12/15 13:15:30;;;;;;;3.80;3.50;;;10.70;99.90;13.80;103372.00;;;;5088185;28;20211;-68
2023/12/15 13:18:02;;;;;;;1.60;1.07;;;11.00;99.90;13.30;103375.00;;;;5070424;28;20185;-68
2023/12/15 13:20:31;;;;;;;0.53;0.53;;;11.00;99.90;13.40;103381.00;;;;5071005;28;20647;-68
2023/12/15 13:22:57;;;;;;;2.43;1.13;;;10.90;99.90;14.00;103358.00;;;;5088803;28;20559;-68
2023/12/15 13:39:34;;;;;;;0.10;0.10;;;10.60;99.90;12.90;103365.00;;;;5146238;27;21083;-68
2023/12/15 13:42:00;;;;;;;0.30;0.30;;;10.80;99.90;12.50;103365.00;;;;5112714;28;20179;-69
2023/12/15 13:44:29;;;;;;;0.10;0.10;;;10.60;99.90;12.70;103361.00;;;;5109705;28;20226;-68
2023/12/15 13:47:04;;;;;;;0.20;0.20;;;10.60;99.90;13.00;103376.00;;;;5109077;28;20198;-69
2023/12/15 13:49:39;;;;;;;0.20;0.20;;;10.70;99.90;13.10;103353.00;;;;5110518;28;20182;-68
2023/12/15 13:52:17;;;;;;;1.93;1.30;;;10.70;99.90;13.90;103361.00;;;;5126555;28;20186;-69
2023/12/15 13:54:43;;;;;;;0.63;0.63;;;11.00;99.90;13.30;103366.00;;;;5108897;28;20188;-69
2023/12/15 13:57:13;;;;;;;7.47;1.27;;;11.00;99.90;13.30;103353.00;;;;5110106;28;20204;-68
2023/12/15 13:59:44;;;;;;;0.30;0.30;;;11.00;99.90;13.00;103318.00;;;;5110809;28;20206;-69
2023/12/15 14:02:10;;;;;;;0.40;0.40;;;10.80;99.90;14.10;103379.00;;;;5122778;28;20255;-69
2023/12/15 14:04:45;;;;;;;2.00;1.03;;;11.10;99.90;13.80;103384.00;;;;5111069;28;20275;-69
2023/12/15 14:07:14;;;;;;;0.10;0.10;;;11.20;99.90;13.80;103353.00;;;;5112727;28;20203;-69
2023/12/15 14:09:46;;;;;;;0.20;0.20;;;11.20;99.90;13.80;103391.00;;;;5111734;28;20636;-69
2023/12/15 14:12:17;;;;;;;0.97;0.93;;;11.20;99.90;13.90;103387.00;;;;5119316;28;20177;-69
2023/12/15 14:14:49;;;;;;;0.10;0.10;;;11.20;99.90;14.40;103410.00;;;;5112200;28;20191;-68
2023/12/15 14:17:15;;;;;;;7.13;2.67;;;11.40;99.90;14.60;103368.00;;;;5118685;28;20217;-69
2023/12/15 14:19:41;;;;;;;1.55;1.00;;;11.60;99.90;13.60;103413.00;;;;5110279;28;20823;-68
2023/12/15 14:22:15;;;;;;;0.80;0.80;;;11.40;99.90;13.90;103393.00;;;;5120742;28;20274;-69
2023/12/15 14:24:53;;;;;;;0.43;0.43;;;11.30;99.90;13.40;103401.00;;;;5126302;28;20274;-68
2023/12/15 14:27:26;;;;;;;0.20;0.20;;;11.10;99.90;13.40;103403.00;;;;5122327;28;20198;-68
2023/12/15 14:30:26;;;;;;;1.90;1.80;;;11.00;99.90;13.80;103418.00;;;;5123046;28;20186;-68
2023/12/15 14:33:07;;;;;;;0.20;0.20;;;11.10;99.90;13.90;103432.00;;;;5101577;28;20194;-68
2023/12/15 14:35:44;;;;;;;1.97;1.87;;;11.20;99.90;13.30;103412.00;;;;5108702;28;20184;-68
2023/12/15 14:38:34;;;;;;;0.37;0.37;;;11.00;99.90;14.10;103413.00;;;;5110389;28;20220;-68
2023/12/15 14:41:18;;;;;;;0.70;0.70;;;11.10;99.90;13.90;103427.00;;;;5100135;28;20188;-68
2023/12/15 14:44:12;;;;;;;0.47;0.47;;;11.30;99.90;14.10;103424.00;;;;5096793;28;20187;-68
2023/12/15 14:46:41;;;;;;;4.93;1.90;;;11.30;99.90;14.20;103402.00;;;;5094287;28;20184;-68
2023/12/15 14:49:19;;;;;;;1.33;0.70;;;11.40;99.90;13.60;103434.00;;;;5113366;28;20180;-68
2023/12/15 14:52:15;;;;;;;3.33;2.10;;;11.30;99.90;13.80;103423.00;;;;5093032;28;20186;-68
2023/12/15 14:54:48;;;;;;;0.80;0.80;;;11.20;99.90;12.90;103416.00;;;;5110382;28;20185;-68
2023/12/15 14:57:24;;;;;;;0.20;0.20;;;11.00;99.90;13.40;103416.00;;;;5089709;28;20190;-69
2023/12/15 14:59:52;;;;;;;1.63;1.53;;;10.80;99.90;13.60;103408.00;;;;5094675;28;20600;-69
2023/12/15 15:02:18;;;;;;;3.27;1.73;;;11.00;99.90;13.50;103396.00;;;;5108724;28;20640;-69
2023/12/15 15:05:03;;;;;;;0.83;0.83;;;11.00;99.90;13.00;103386.00;;;;5107495;28;20189;-69
2023/12/15 15:07:36;;;;;;;2.10;2.00;;;10.70;99.90;12.90;103396.00;;;;5093561;28;20181;-68
2023/12/15 15:10:13;;;;;;;0.43;0.43;;;10.80;99.90;13.40;103414.00;;;;5100770;28;20184;-68
2023/12/15 15:12:53;;;;;;;2.30;1.87;;;10.90;99.90;13.80;103429.00;;;;5107951;28;20184;-68
2023/12/15 15:15:19;;;;;;;0.80;0.80;;;11.00;99.90;14.10;103400.00;;;;5097477;28;20218;-68
2023/12/15 15:17:45;;;;;;;0.20;0.20;;;11.30;99.90;13.40;103427.00;;;;5108220;28;20201;-68
2023/12/15 15:20:11;;;;;;;0.67;0.57;;;11.10;99.90;13.70;103434.00;;;;5109997;28;20195;-68
2023/12/15 15:22:37;;;;;;;1.33;1.33;;;11.10;99.90;13.70;103432.00;;;;5092322;28;20211;-68
2023/12/15 15:25:03;;;;;;;0.53;0.53;;;11.00;99.90;13.50;103424.00;;;;5115209;28;20207;-68
2023/12/15 15:27:32;;;;;;;0.20;0.20;;;11.00;99.90;13.70;103434.00;;;;5097049;28;20514;-68
2023/12/15 15:30:05;;;;;;;1.80;1.13;;;11.00;99.90;13.50;103435.00;;;;5092842;28;20185;-68
2023/12/15 15:32:33;;;;;;;2.30;1.50;;;11.00;99.90;13.20;103420.00;;;;5104944;28;20208;-68
2023/12/15 15:35:06;;;;;;;0.20;0.20;;;10.90;99.90;13.70;103428.00;;;;5094893;28;20195;-68
2023/12/15 15:37:33;;;;;;;0.10;0.10;;;11.00;99.90;13.70;103383.00;;;;5094472;28;20697;-68
2023/12/15 15:39:59;;;;;;;0.20;0.20;;;10.90;99.90;13.80;103389.00;;;;5109652;28;20184;-68
2023/12/15 15:42:25;;;;;;;1.47;0.63;;;11.10;99.90;13.70;103443.00;;;;5086443;28;20184;-68
2023/12/15 15:44:57;;;;;;;0.30;0.30;;;11.00;99.90;13.80;103417.00;;;;5093029;28;20551;-68
2023/12/15 15:47:23;;;;;;;6.63;1.60;;;11.00;99.90;12.90;103439.00;;;;5088229;28;20196;-68
2023/12/15 15:49:51;;;;;;;1.17;0.77;;;10.70;99.90;12.70;103433.00;;;;5096104;28;20185;-68
2023/12/15 15:52:25;;;;;;;0.30;0.30;;;10.60;99.90;12.70;103432.00;;;;5088893;28;20199;-68
2023/12/15 15:54:54;;;;;;;0.20;0.20;;;10.50;99.90;13.00;103395.00;;;;5076145;28;20177;-68
2023/12/15 15:57:31;;;;;;;1.07;1.07;;;10.60;99.90;13.10;103442.00;;;;5096021;28;20208;-68
2023/12/15 16:00:28;;;;;;;2.47;1.07;;;10.50;99.90;13.70;103415.00;;;;5097215;28;20216;-68
2023/12/15 16:02:58;;;;;;;1.37;1.27;;;10.70;99.90;13.50;103467.00;;;;5084191;28;20660;-68
2023/12/15 16:05:25;;;;;;;0.20;0.20;;;10.80;99.90;14.00;103464.00;;;;5108177;28;20183;-68
2023/12/15 16:07:51;;;;;;;2.73;1.43;;;11.00;99.90;13.80;103479.00;;;;5113197;28;20248;-68
2023/12/15 16:10:20;;;;;;;0.60;0.60;;;10.90;99.90;13.20;103453.00;;;;5105211;28;20186;-68
2023/12/15 16:12:46;;;;;;;0.63;0.63;;;10.70;99.90;13.90;103444.00;;;;5095568;28;20195;-68
2023/12/15 16:15:23;;;;;;;0.30;0.30;;;10.80;99.90;13.30;103475.00;;;;5112888;28;20184;-67
2023/12/15 16:17:50;;;;;;;0.47;0.40;;;10.80;99.90;13.60;103498.00;;;;5109646;28;20207;-68
2023/12/15 16:20:22;;;;;;;1.90;1.30;;;10.90;99.90;13.20;103450.00;;;;5094370;28;20423;-68
2023/12/15 16:23:10;;;;;;;0.20;0.20;;;10.70;99.90;13.00;103479.00;;;;5096031;28;20648;-68
2023/12/15 16:25:36;;;;;;;0.27;0.27;;;10.60;99.90;12.70;103443.00;;;;5087938;28;20203;-67
2023/12/15 16:28:11;;;;;;;3.07;1.77;;;10.50;99.90;13.00;103488.00;;;;5089865;28;20295;-68
2023/12/15 16:30:40;;;;;;;0.33;0.33;;;10.40;99.90;12.70;103463.00;;;;5092609;28;20180;-67
2023/12/15 16:33:06;;;;;;;0.50;0.50;;;10.30;99.90;13.10;103471.00;;;;5093868;28;20237;-68
2023/12/15 16:35:35;;;;;;;0.20;0.20;;;10.40;99.90;12.70;103449.00;;;;5098802;28;20185;-68
2023/12/15 16:38:04;;;;;;;1.03;1.03;;;10.30;99.90;12.60;103432.00;;;;5094217;28;20220;-67
2023/12/15 16:40:29;;;;;;;0.50;0.50;;;10.20;99.90;13.30;103472.00;;;;5092444;28;20189;-67
2023/12/15 16:42:56;;;;;;;0.10;0.10;;;10.40;99.90;13.00;103487.00;;;;5091705;28;20250;-67
2023/12/15 16:45:23;;;;;;;0.20;0.20;;;10.50;99.90;13.10;103497.00;;;;5099190;28;20182;-68
2023/12/15 16:47:52;;;;;;;0.10;0.10;;;10.50;99.90;12.70;103504.00;;;;5091560;28;20261;-68
2023/12/15 16:50:18;;;;;;;0.20;0.20;;;10.30;99.90;13.00;103467.00;;;;5100481;28;20186;-68
2023/12/15 16:52:44;;;;;;;0.10;0.10;;;10.30;99.90;14.20;103442.00;;;;5095164;28;20188;-68
2023/12/15 16:55:15;;;;;;;1.13;1.03;;;10.70;99.90;13.90;103506.00;;;;5093461;28;20658;-68
2023/12/15 16:57:42;;;;;;;0.20;0.20;;;10.80;99.90;13.50;103517.00;;;;5077995;28;20276;-68
2023/12/15 17:00:12;;;;;;;3.50;0.50;;;10.80;99.90;13.20;103530.00;;;;5093967;28;20188;-68
2023/12/15 17:02:38;;;;;;;0.10;0.10;;;10.70;99.90;12.70;103466.00;;;;5093453;28;20192;-67
2023/12/15 17:05:09;;;;;;;0.57;0.57;;;10.40;99.90;12.20;103500.00;;;;5091011;28;20185;-67
2023/12/15 17:07:38;;;;;;;3.10;2.90;;;10.10;99.90;12.30;103497.00;;;;5085846;28;20195;-67
2023/12/15 17:10:19;;;;;;;0.10;0.10;;;10.00;99.90;13.30;103491.00;;;;5100550;28;20193;-67
2023/12/15 17:12:45;;;;;;;0.20;0.20;;;10.20;99.90;14.00;103507.00;;;;5103309;28;20187;-68
2023/12/15 17:15:12;;;;;;;0.20;0.20;;;10.70;99.90;13.40;103533.00;;;;5091684;28;20234;-68
2023/12/15 17:17:39;;;;;;;7.40;1.53;;;10.70;99.90;12.40;103549.00;;;;5111758;28;20208;-68
2023/12/15 17:20:15;;;;;;;1.70;1.00;;;10.40;99.90;12.10;103527.00;;;;5100977;28;20188;-68
2023/12/15 17:22:41;;;;;;;0.40;0.40;;;10.10;99.90;12.30;103550.00;;;;5105651;28;20262;-68
2023/12/15 17:25:18;;;;;;;0.20;0.20;;;10.10;99.90;12.50;103527.00;;;;5098965;28;20207;-68
2023/12/15 17:27:47;;;;;;;0.17;0.17;;;10.00;99.90;12.70;103533.00;;;;5092194;28;20691;-68
2023/12/15 17:30:18;;;;;;;2.03;1.57;;;10.10;99.90;12.70;103484.00;;;;5091352;28;20268;-68
2023/12/15 17:32:50;;;;;;;0.20;0.20;;;10.20;99.90;12.20;103501.00;;;;5092513;28;20316;-68
2023/12/15 17:35:18;;;;;;;0.83;0.80;;;10.10;99.90;12.30;103556.00;;;;5078756;28;20196;-68
2023/12/15 17:37:50;;;;;;;0.10;0.10;;;10.10;99.90;12.80;103562.00;;;;5094377;28;20246;-68
2023/12/15 17:40:17;;;;;;;0.10;0.10;;;10.30;99.90;12.40;103521.00;;;;5088299;28;20190;-68
2023/12/15 17:42:59;;;;;;;0.20;0.20;;;10.20;99.90;12.60;103577.00;;;;5094163;28;20187;-68
2023/12/15 17:45:53;;;;;;;0.50;0.50;;;10.30;99.90;13.00;103590.00;;;;5102456;28;20188;-68
2023/12/15 17:48:33;;;;;;;0.20;0.20;;;10.40;99.90;12.70;103546.00;;;;5107582;28;20675;-68
2023/12/15 17:51:37;;;;;;;0.30;0.30;;;10.30;99.90;12.20;103586.00;;;;5105418;28;20190;-68
2023/12/15 17:54:04;;;;;;;0.47;0.47;;;10.10;99.90;12.90;103566.00;;;;5107068;28;20242;-68
2023/12/15 17:56:30;;;;;;;2.07;0.83;;;10.20;99.90;12.40;103572.00;;;;5104067;28;20644;-68
2023/12/15 17:59:05;;;;;;;3.33;3.13;;;10.20;99.90;12.70;103582.00;;;;5107571;28;20207;-68
2023/12/15 18:01:43;;;;;;;0.10;0.10;;;10.20;99.90;13.50;103577.00;;;;5089808;28;20192;-68
2023/12/15 18:04:09;;;;;;;0.20;0.20;;;10.40;99.90;13.90;103578.00;;;;5099909;28;20192;-68
2023/12/15 18:06:38;;;;;;;0.10;0.10;;;10.50;99.90;13.70;103603.00;;;;5085972;28;20180;-68
2023/12/15 18:09:19;;;;;;;0.20;0.20;;;10.60;99.90;12.40;103589.00;;;;5110076;28;20300;-68
2023/12/15 18:11:48;;;;;;;0.20;0.20;;;10.30;99.90;12.10;103553.00;;;;5068402;28;20196;-68
2023/12/15 18:14:20;;;;;;;0.30;0.30;;;10.00;99.90;12.80;103505.00;;;;5091386;28;20283;-69
2023/12/15 18:16:47;;;;;;;0.30;0.30;;;10.10;99.90;13.20;103576.00;;;;5095940;28;20267;-68
2023/12/15 18:19:46;;;;;;;0.20;0.20;;;10.20;99.90;12.90;103594.00;;;;5078215;28;20288;-68
2023/12/15 18:22:12;;;;;;;0.20;0.20;;;10.30;99.90;13.50;103606.00;;;;5098201;28;20181;-69
2023/12/15 18:24:52;;;;;;;2.73;2.53;;;10.40;99.90;12.90;103559.00;;;;5097692;28;20275;-68
2023/12/15 18:27:18;;;;;;;0.20;0.20;;;10.30;99.90;13.50;103614.00;;;;5096038;28;20188;-68
2023/12/15 18:29:47;;;;;;;0.10;0.10;;;10.40;99.90;14.10;103629.00;;;;5095960;28;20253;-68
2023/12/15 18:32:13;;;;;;;0.20;0.20;;;10.60;99.90;13.40;103644.00;;;;5096281;28;20209;-68
2023/12/15 18:34:45;;;;;;;0.30;0.30;;;10.60;99.90;12.60;103628.00;;;;5097342;28;20719;-68
2023/12/15 18:37:15;;;;;;;0.10;0.10;;;10.20;99.90;12.40;103622.00;;;;5105071;28;20216;-68
2023/12/15 18:39:57;;;;;;;0.23;0.23;;;10.00;99.90;12.30;103603.00;;;;5109446;28;20221;-68
2023/12/15 18:42:23;;;;;;;0.10;0.10;;;9.80;99.90;13.40;103608.00;;;;5089310;28;20628;-69
2023/12/15 18:44:49;;;;;;;1.37;1.27;;;10.10;99.90;12.40;103604.00;;;;5097307;28;20637;-68
2023/12/15 18:47:18;;;;;;;1.37;1.27;;;10.00;99.90;12.50;103623.00;;;;5099301;28;20235;-69
2023/12/15 18:49:45;;;;;;;0.10;0.10;;;10.00;99.90;13.40;103584.00;;;;5105329;28;20195;-69
2023/12/15 18:52:25;;;;;;;0.10;0.10;;;10.30;99.90;12.50;103631.00;;;;5085044;28;20259;-69
2023/12/15 18:55:01;;;;;;;0.10;0.10;;;10.10;99.90;12.70;103641.00;;;;5093663;28;20667;-68
2023/12/15 18:57:34;;;;;;;0.20;0.20;;;10.10;99.90;13.30;103632.00;;;;5097343;28;20199;-68
2023/12/15 19:00:09;;;;;;;0.90;0.90;;;10.20;99.90;12.40;103637.00;;;;5094761;28;20202;-68
2023/12/15 19:02:39;;;;;;;0.20;0.20;;;10.00;99.90;12.10;103584.00;;;;5096537;28;20256;-69
2023/12/15 19:05:05;;;;;;;0.73;0.73;;;9.80;99.90;11.70;103628.00;;;;5111651;28;20411;-68
2023/12/15 19:07:43;;;;;;;0.87;0.87;;;9.60;99.90;11.70;103617.00;;;;5108272;28;20284;-69
2023/12/15 19:10:09;;;;;;;0.30;0.30;;;9.60;99.90;11.90;103615.00;;;;5109008;28;20285;-69
2023/12/15 19:12:42;;;;;;;1.80;1.13;;;9.60;99.90;11.90;103607.00;;;;5094330;28;20235;-69
2023/12/15 19:15:10;;;;;;;0.10;0.10;;;9.60;99.90;11.80;103627.00;;;;5076995;28;20193;-69
2023/12/15 19:17:39;;;;;;;3.57;1.90;;;9.60;99.90;12.60;103630.00;;;;5073094;28;20220;-68